Аэропорт
Дашогуз (UTAT)

 UTAT / TAZ
ЗЦ Центральная Азия
Дашогуз (UTAT)
Дашогуз (UTAT)
 41.76110, 59.82670  / 272 ft

 UTAT 250800Z 16012KT CAVOK 17/08 Q1005 R08/CLRD70 NOSIG
 TAF UTAT 242233Z 2500/2524 15012KT 6000 SCT020 BKN050 TEMPO 2500/2506 1000 BR OVC005 TEMPO 2506/2512 18016G26KT
UTAT_aip_1705
показать схемы

Аэропорт Дашогуз — аэропорт в 10 км на юго-запад от Дашогуза, Туркмения. Основан в 1924 году.

Дашогуз является одним из старейших аэропортов Туркмении. Первый авиарейс выполнен в 1924 году. В 2009 году завершена реконструкция здания аэровокзала. 



2020 © VATRUS division (Privacy Policy)